Time;durP1;ratioP1;P1;durP2;ratioP2;P2;SDS_P1;SDS_P2;PMS_P1;PMS_P2;Temp;Humidity;BMP_temperature;BMP_pressure;BME280_temperature;BME280_humidity;BME280_pressure;Samples;Min_cycle;Max_cycle;Signal;HPM_P1;HPM_P2
2022/01/15 00:01:01;;;;;;;138.80;54.88;;;;;;;;;;5060825;28;20455;-58
2022/01/15 00:03:27;;;;;;;196.73;55.83;;;;;;;;;;5057148;28;20128;-58
2022/01/15 00:05:54;;;;;;;158.77;56.95;;;;;;;;;;5049695;28;20029;-58
2022/01/15 00:08:19;;;;;;;138.10;54.33;;;;;;;;;;5070299;28;20103;-58
2022/01/15 00:10:44;;;;;;;164.88;54.10;;;;;;;;;;5063200;28;20485;-58
2022/01/15 00:13:18;;;;;;;139.88;54.10;;;;;;;;;;5052529;28;20016;-58
2022/01/15 00:15:49;;;;;;;150.13;53.15;;;;;;;;;;5065344;28;20048;-58
2022/01/15 00:18:17;;;;;;;146.57;52.47;;;;;;;;;;5062924;28;20029;-58
2022/01/15 00:20:42;;;;;;;136.43;54.22;;;;;;;;;;5058241;28;20033;-58
2022/01/15 00:23:07;;;;;;;149.55;57.35;;;;;;;;;;5057066;28;20031;-58
2022/01/15 00:25:33;;;;;;;182.52;57.88;;;;;;;;;;5051091;28;20063;-58
2022/01/15 00:27:59;;;;;;;125.93;50.08;;;;;;;;;;5052693;28;20025;-57
2022/01/15 00:30:24;;;;;;;136.43;50.65;;;;;;;;;;5065663;28;20045;-58
2022/01/15 00:32:51;;;;;;;139.13;50.65;;;;;;;;;;5072308;28;20384;-58
2022/01/15 00:35:17;;;;;;;141.55;53.63;;;;;;;;;;5051190;28;20044;-58
2022/01/15 00:37:43;;;;;;;163.65;57.72;;;;;;;;;;5054273;28;20044;-58
2022/01/15 00:40:10;;;;;;;152.77;51.42;;;;;;;;;;5068599;28;20461;-58
2022/01/15 00:42:37;;;;;;;158.75;49.58;;;;;;;;;;5051817;28;20025;-58
2022/01/15 00:45:03;;;;;;;150.68;52.20;;;;;;;;;;5059039;28;20041;-58
2022/01/15 00:47:31;;;;;;;150.10;54.63;;;;;;;;;;5070638;28;20028;-59
2022/01/15 00:49:59;;;;;;;137.50;50.85;;;;;;;;;;5050432;28;20487;-59
2022/01/15 00:52:24;;;;;;;103.20;38.65;;;;;;;;;;5072288;28;20025;-58
2022/01/15 00:54:50;;;;;;;136.27;51.47;;;;;;;;;;5070617;28;20032;-59
2022/01/15 00:57:15;;;;;;;150.95;51.75;;;;;;;;;;5071857;28;20077;-59
2022/01/15 00:59:40;;;;;;;150.70;50.88;;;;;;;;;;5064978;28;20035;-59
2022/01/15 01:02:05;;;;;;;135.27;52.80;;;;;;;;;;5053916;28;20174;-59
2022/01/15 01:04:30;;;;;;;163.32;51.78;;;;;;;;;;5063206;28;20462;-59
2022/01/15 01:06:55;;;;;;;163.88;55.03;;;;;;;;;;5056578;28;20112;-59
2022/01/15 01:09:23;;;;;;;159.77;52.17;;;;;;;;;;5050713;28;20072;-59
2022/01/15 01:11:56;;;;;;;159.18;51.65;;;;;;;;;;5066515;28;20031;-59
2022/01/15 01:25:01;;;;;;;163.27;54.45;;;;;;;;;;5030449;28;20065;-58
2022/01/15 01:27:42;;;;;;;147.65;52.17;;;;;;;;;;5049348;28;20048;-57
2022/01/15 01:30:17;;;;;;;158.25;52.50;;;;;;;;;;5069008;28;20049;-58
2022/01/15 01:35:17;;;;;;;169.80;49.33;;;;;;;;;;5049729;28;20396;-59
2022/01/15 01:37:48;;;;;;;195.68;52.30;;;;;;;;;;5051473;28;20017;-59
2022/01/15 01:40:24;;;;;;;167.30;52.55;;;;;;;;;;5050923;28;20511;-58
2022/01/15 01:43:05;;;;;;;182.38;56.58;;;;;;;;;;5069353;28;20028;-58
2022/01/15 01:45:31;;;;;;;183.88;54.92;;;;;;;;;;5029974;28;20041;-57
2022/01/15 01:47:56;;;;;;;194.68;62.55;;;;;;;;;;5052296;28;20044;-59
2022/01/15 01:50:22;;;;;;;164.77;50.23;;;;;;;;;;5066955;28;20128;-58
2022/01/15 01:52:49;;;;;;;189.82;55.30;;;;;;;;;;5050788;28;20447;-59
2022/01/15 01:55:14;;;;;;;177.80;54.85;;;;;;;;;;5056288;28;20254;-59
2022/01/15 01:57:41;;;;;;;144.48;53.08;;;;;;;;;;5070591;28;20116;-58
2022/01/15 02:00:07;;;;;;;178.38;56.30;;;;;;;;;;5069517;28;20037;-59
2022/01/15 02:02:32;;;;;;;186.70;51.58;;;;;;;;;;5070074;28;20329;-59
2022/01/15 02:04:58;;;;;;;159.50;52.13;;;;;;;;;;5064332;28;20086;-59
2022/01/15 02:07:24;;;;;;;150.90;47.38;;;;;;;;;;5051235;28;20131;-59
2022/01/15 02:09:49;;;;;;;145.20;48.15;;;;;;;;;;5059377;28;20148;-59
2022/01/15 02:12:15;;;;;;;170.05;50.60;;;;;;;;;;5067864;28;20611;-58
2022/01/15 02:14:40;;;;;;;158.27;45.40;;;;;;;;;;5068969;28;20052;-58
2022/01/15 02:17:05;;;;;;;146.35;50.03;;;;;;;;;;5067129;28;20510;-58
2022/01/15 02:19:31;;;;;;;138.70;48.87;;;;;;;;;;5049126;28;20045;-58
2022/01/15 02:24:40;;;;;;;133.70;43.30;;;;;;;;;;5050218;28;20083;-58
2022/01/15 02:27:05;;;;;;;154.50;47.20;;;;;;;;;;5058757;28;20419;-59
2022/01/15 02:29:30;;;;;;;155.65;45.38;;;;;;;;;;5067535;28;20068;-58
2022/01/15 02:31:55;;;;;;;145.05;44.33;;;;;;;;;;5056899;28;20017;-58
2022/01/15 02:34:21;;;;;;;147.05;46.35;;;;;;;;;;5048989;28;20116;-59
2022/01/15 02:36:46;;;;;;;156.98;45.45;;;;;;;;;;5064423;28;20025;-58
2022/01/15 02:39:11;;;;;;;134.73;48.30;;;;;;;;;;5052708;28;20519;-58
2022/01/15 02:41:37;;;;;;;141.97;45.37;;;;;;;;;;5060729;28;20017;-59
2022/01/15 02:44:04;;;;;;;138.43;44.08;;;;;;;;;;5062659;28;20448;-58
2022/01/15 02:48:55;;;;;;;112.43;42.63;;;;;;;;;;5048575;28;20487;-60
2022/01/15 02:51:21;;;;;;;128.13;41.97;;;;;;;;;;5058795;28;20451;-60
2022/01/15 02:53:50;;;;;;;142.13;45.28;;;;;;;;;;5057697;28;20022;-60
2022/01/15 02:56:15;;;;;;;122.50;44.90;;;;;;;;;;5050253;28;20043;-60
2022/01/15 02:58:40;;;;;;;122.82;44.35;;;;;;;;;;5066337;28;20472;-60
2022/01/15 03:01:06;;;;;;;139.00;45.60;;;;;;;;;;5063950;28;20017;-60
2022/01/15 03:03:31;;;;;;;140.75;40.85;;;;;;;;;;5046972;28;20823;-57
2022/01/15 03:05:58;;;;;;;129.90;43.53;;;;;;;;;;5049959;28;20120;-59
2022/01/15 03:08:23;;;;;;;117.82;43.92;;;;;;;;;;5050346;28;20159;-59
2022/01/15 03:10:48;;;;;;;113.35;37.35;;;;;;;;;;5051778;28;20123;-59
2022/01/15 03:13:14;;;;;;;113.63;39.20;;;;;;;;;;5060090;28;20025;-59
2022/01/15 03:15:39;;;;;;;122.45;41.15;;;;;;;;;;5067475;28;20043;-59
2022/01/15 03:18:05;;;;;;;154.93;45.50;;;;;;;;;;5070017;28;20093;-59
2022/01/15 03:20:30;;;;;;;134.07;40.47;;;;;;;;;;5067474;28;20048;-59
2022/01/15 03:22:56;;;;;;;121.85;41.85;;;;;;;;;;5069488;28;20023;-59
2022/01/15 03:25:21;;;;;;;113.30;38.40;;;;;;;;;;5061974;28;20413;-59
2022/01/15 03:27:46;;;;;;;140.32;44.50;;;;;;;;;;5050036;28;20029;-59
2022/01/15 03:30:12;;;;;;;127.80;43.78;;;;;;;;;;5048416;28;20060;-59
2022/01/15 03:32:42;;;;;;;120.68;46.00;;;;;;;;;;5067264;28;20056;-59
2022/01/15 03:35:10;;;;;;;122.97;44.72;;;;;;;;;;5068646;28;20055;-59
2022/01/15 03:37:35;;;;;;;121.13;44.10;;;;;;;;;;5067442;28;20048;-58
2022/01/15 03:40:00;;;;;;;125.90;41.05;;;;;;;;;;5061261;28;20087;-58
2022/01/15 03:42:25;;;;;;;125.13;37.67;;;;;;;;;;5069830;28;20027;-58
2022/01/15 03:44:51;;;;;;;107.57;39.47;;;;;;;;;;5071795;28;20533;-58
2022/01/15 03:47:16;;;;;;;106.70;38.47;;;;;;;;;;5073462;28;20415;-58
2022/01/15 03:49:42;;;;;;;116.07;41.33;;;;;;;;;;5071885;28;20449;-58
2022/01/15 03:52:08;;;;;;;100.82;35.28;;;;;;;;;;5068862;28;20032;-58
2022/01/15 03:54:33;;;;;;;100.30;37.17;;;;;;;;;;5071617;28;20032;-58
2022/01/15 03:56:59;;;;;;;95.60;35.33;;;;;;;;;;5063525;28;20017;-59
2022/01/15 03:59:24;;;;;;;91.10;35.20;;;;;;;;;;5051903;28;20037;-59
2022/01/15 04:01:49;;;;;;;92.10;37.97;;;;;;;;;;5063160;28;20063;-57
2022/01/15 04:04:15;;;;;;;126.40;38.40;;;;;;;;;;5063618;28;20443;-58
2022/01/15 04:06:41;;;;;;;85.13;35.72;;;;;;;;;;5059819;28;20027;-59
2022/01/15 04:09:06;;;;;;;90.88;32.85;;;;;;;;;;5071373;28;20044;-59
2022/01/15 04:11:31;;;;;;;81.53;33.20;;;;;;;;;;5064520;28;20017;-58
2022/01/15 04:13:56;;;;;;;97.60;33.97;;;;;;;;;;5051535;28;20453;-59
2022/01/15 04:16:21;;;;;;;66.03;29.10;;;;;;;;;;5052676;28;20468;-59
2022/01/15 04:18:47;;;;;;;65.20;31.13;;;;;;;;;;5056228;28;20451;-59
2022/01/15 04:21:13;;;;;;;52.58;23.90;;;;;;;;;;5052611;28;20434;-59
2022/01/15 04:23:39;;;;;;;56.17;22.67;;;;;;;;;;5051107;28;20082;-60
2022/01/15 04:26:04;;;;;;;53.88;24.88;;;;;;;;;;5052130;28;20021;-59
2022/01/15 04:28:31;;;;;;;51.22;22.67;;;;;;;;;;5052939;28;20035;-60
2022/01/15 04:31:04;;;;;;;77.38;25.75;;;;;;;;;;5053758;28;20444;-60
2022/01/15 04:33:29;;;;;;;74.13;32.40;;;;;;;;;;5054731;28;20033;-59
2022/01/15 04:35:54;;;;;;;65.55;29.67;;;;;;;;;;5066889;28;20054;-59
2022/01/15 04:38:19;;;;;;;68.05;29.10;;;;;;;;;;5052528;28;20032;-59
2022/01/15 04:40:44;;;;;;;81.65;34.25;;;;;;;;;;5051850;28;20078;-58
2022/01/15 04:43:10;;;;;;;87.63;34.03;;;;;;;;;;5072589;28;20063;-58
2022/01/15 04:45:35;;;;;;;81.35;29.27;;;;;;;;;;5059169;28;20041;-59
2022/01/15 04:48:00;;;;;;;66.63;26.77;;;;;;;;;;5052180;28;20029;-58
2022/01/15 04:50:25;;;;;;;71.80;31.37;;;;;;;;;;5050836;28;20037;-58
2022/01/15 04:52:50;;;;;;;57.17;29.30;;;;;;;;;;5069360;28;20862;-58
2022/01/15 04:55:15;;;;;;;67.05;31.67;;;;;;;;;;5070550;28;20396;-58
2022/01/15 04:57:41;;;;;;;59.53;25.67;;;;;;;;;;5072077;28;20080;-59
2022/01/15 05:00:11;;;;;;;61.13;29.10;;;;;;;;;;5069184;28;20532;-59
2022/01/15 05:02:36;;;;;;;57.90;27.88;;;;;;;;;;5055039;28;20032;-59
2022/01/15 05:05:02;;;;;;;60.03;26.63;;;;;;;;;;5050396;28;20041;-59
2022/01/15 05:07:27;;;;;;;61.33;30.23;;;;;;;;;;5052206;28;20017;-59
2022/01/15 05:09:52;;;;;;;52.87;27.17;;;;;;;;;;5050195;28;20120;-59
2022/01/15 05:12:27;;;;;;;58.85;23.80;;;;;;;;;;5063454;28;20457;-57
2022/01/15 05:14:53;;;;;;;69.07;31.15;;;;;;;;;;5060926;28;20506;-58
2022/01/15 05:17:18;;;;;;;72.13;28.48;;;;;;;;;;5064512;28;20032;-58
2022/01/15 05:19:43;;;;;;;72.67;31.13;;;;;;;;;;5066009;28;20495;-58
2022/01/15 05:22:08;;;;;;;70.85;31.98;;;;;;;;;;5063356;28;20439;-58
2022/01/15 05:24:33;;;;;;;77.30;32.05;;;;;;;;;;5063534;28;20519;-58
2022/01/15 05:26:59;;;;;;;84.80;32.75;;;;;;;;;;5055419;28;20021;-58
2022/01/15 05:29:24;;;;;;;82.50;31.85;;;;;;;;;;5060999;28;20056;-58
2022/01/15 05:31:49;;;;;;;73.63;29.65;;;;;;;;;;5061858;28;20384;-58
2022/01/15 05:34:15;;;;;;;78.03;29.77;;;;;;;;;;5049945;28;20029;-58
2022/01/15 05:36:40;;;;;;;74.25;31.48;;;;;;;;;;5051599;28;20021;-60
2022/01/15 05:39:06;;;;;;;71.80;32.22;;;;;;;;;;5061152;28;20496;-59
2022/01/15 05:41:31;;;;;;;66.35;26.50;;;;;;;;;;5046765;28;20025;-59
2022/01/15 05:44:01;;;;;;;62.75;28.10;;;;;;;;;;5041770;28;20082;-59
2022/01/15 05:46:27;;;;;;;68.13;28.25;;;;;;;;;;5054264;28;20075;-59
2022/01/15 05:48:52;;;;;;;66.53;29.90;;;;;;;;;;5048117;28;20600;-60
2022/01/15 05:51:17;;;;;;;58.72;24.90;;;;;;;;;;5050912;28;20021;-59
2022/01/15 05:53:42;;;;;;;56.63;23.70;;;;;;;;;;5048038;28;20017;-59
2022/01/15 05:56:08;;;;;;;62.90;27.87;;;;;;;;;;5057661;28;20495;-60
2022/01/15 05:58:33;;;;;;;47.72;25.38;;;;;;;;;;5050127;28;20092;-59
2022/01/15 06:00:58;;;;;;;45.33;22.52;;;;;;;;;;5062401;28;20009;-60
2022/01/15 06:03:23;;;;;;;53.13;24.57;;;;;;;;;;5070276;28;20024;-59
2022/01/15 06:05:49;;;;;;;48.87;24.07;;;;;;;;;;5067771;28;20453;-60
2022/01/15 06:08:14;;;;;;;50.08;23.23;;;;;;;;;;5063343;28;20021;-59
2022/01/15 06:10:40;;;;;;;56.35;28.15;;;;;;;;;;5049919;28;20478;-59
2022/01/15 06:13:05;;;;;;;59.95;29.13;;;;;;;;;;5067469;28;20024;-59
2022/01/15 06:15:31;;;;;;;64.65;28.83;;;;;;;;;;5059532;28;20063;-59
2022/01/15 06:17:56;;;;;;;61.53;28.33;;;;;;;;;;5051254;28;20068;-59
2022/01/15 06:20:21;;;;;;;61.65;27.42;;;;;;;;;;5048800;28;20908;-59
2022/01/15 06:22:46;;;;;;;55.92;29.30;;;;;;;;;;5064670;28;20031;-58
2022/01/15 06:25:11;;;;;;;63.10;32.07;;;;;;;;;;5059153;28;20041;-58
2022/01/15 06:27:36;;;;;;;54.10;27.88;;;;;;;;;;5050364;28;20443;-58
2022/01/15 06:30:02;;;;;;;46.53;24.97;;;;;;;;;;5048172;28;20063;-59
2022/01/15 06:32:28;;;;;;;52.47;26.58;;;;;;;;;;5061872;28;20528;-59
2022/01/15 06:34:53;;;;;;;50.08;28.90;;;;;;;;;;5042756;28;20036;-58
2022/01/15 06:37:19;;;;;;;48.85;28.35;;;;;;;;;;5049940;28;20040;-58
2022/01/15 06:39:45;;;;;;;48.75;30.60;;;;;;;;;;5050090;28;20029;-58
2022/01/15 06:42:10;;;;;;;52.00;27.98;;;;;;;;;;5049793;28;20032;-58
2022/01/15 06:44:35;;;;;;;49.10;29.43;;;;;;;;;;5040203;28;20071;-58
2022/01/15 06:47:00;;;;;;;49.15;29.35;;;;;;;;;;5049443;28;20795;-58
2022/01/15 06:49:25;;;;;;;50.92;25.90;;;;;;;;;;5053727;28;20079;-58
2022/01/15 06:51:50;;;;;;;47.97;27.42;;;;;;;;;;5050161;28;20021;-59
2022/01/15 06:54:15;;;;;;;55.23;29.97;;;;;;;;;;5058092;28;20358;-58
2022/01/15 06:56:41;;;;;;;57.97;29.87;;;;;;;;;;5059389;28;20427;-59
2022/01/15 06:59:06;;;;;;;50.57;27.07;;;;;;;;;;5049232;28;20541;-58
2022/01/15 07:01:31;;;;;;;50.47;27.53;;;;;;;;;;5067047;28;20838;-58
2022/01/15 07:03:56;;;;;;;53.55;28.63;;;;;;;;;;5053418;28;20455;-58
2022/01/15 07:06:21;;;;;;;55.37;27.80;;;;;;;;;;5048656;28;20021;-58
2022/01/15 07:08:46;;;;;;;50.78;26.17;;;;;;;;;;5058430;28;20325;-58
2022/01/15 07:11:12;;;;;;;58.57;29.60;;;;;;;;;;5055049;28;20013;-58
2022/01/15 07:13:37;;;;;;;55.75;31.60;;;;;;;;;;5057402;28;20978;-58
2022/01/15 07:16:02;;;;;;;57.08;28.63;;;;;;;;;;5054786;28;20081;-58
2022/01/15 07:18:28;;;;;;;62.63;32.83;;;;;;;;;;5053840;28;20068;-58
2022/01/15 07:20:53;;;;;;;55.13;28.70;;;;;;;;;;5068468;28;20032;-57
2022/01/15 07:23:18;;;;;;;54.35;29.45;;;;;;;;;;5056123;28;20584;-59
2022/01/15 07:25:44;;;;;;;60.25;28.48;;;;;;;;;;5053869;28;20045;-59
2022/01/15 07:28:09;;;;;;;69.23;32.83;;;;;;;;;;5066758;28;20217;-59
2022/01/15 07:30:35;;;;;;;72.13;32.78;;;;;;;;;;5052177;28;20502;-59
2022/01/15 07:33:00;;;;;;;77.18;35.35;;;;;;;;;;5053460;28;20444;-59
2022/01/15 07:35:25;;;;;;;69.78;31.50;;;;;;;;;;5060876;28;20028;-58
2022/01/15 07:37:51;;;;;;;68.17;28.03;;;;;;;;;;5063389;28;20017;-59
2022/01/15 07:40:16;;;;;;;69.63;30.80;;;;;;;;;;5050898;28;20471;-58
2022/01/15 07:42:41;;;;;;;68.50;34.30;;;;;;;;;;5053272;28;20017;-59
2022/01/15 07:45:08;;;;;;;69.63;28.05;;;;;;;;;;5066184;28;20471;-58
2022/01/15 07:47:33;;;;;;;75.18;30.92;;;;;;;;;;5059522;28;20533;-58
2022/01/15 07:49:59;;;;;;;76.80;29.67;;;;;;;;;;5071262;28;20040;-58
2022/01/15 07:52:24;;;;;;;72.78;33.13;;;;;;;;;;5064471;28;20032;-58
2022/01/15 07:54:50;;;;;;;92.45;35.10;;;;;;;;;;5050666;28;20442;-58
2022/01/15 07:57:15;;;;;;;78.05;32.55;;;;;;;;;;5053291;28;20079;-58
2022/01/15 07:59:40;;;;;;;73.63;30.65;;;;;;;;;;5068069;28;20037;-58
2022/01/15 08:02:05;;;;;;;74.93;30.97;;;;;;;;;;5059702;28;20605;-58
2022/01/15 08:04:30;;;;;;;81.88;32.70;;;;;;;;;;5069189;28;20498;-58
2022/01/15 08:06:56;;;;;;;67.32;28.17;;;;;;;;;;5061526;28;20020;-58
2022/01/15 08:09:21;;;;;;;87.50;31.52;;;;;;;;;;5055605;28;20037;-59
2022/01/15 08:11:46;;;;;;;68.63;30.63;;;;;;;;;;5052833;28;20036;-57
2022/01/15 08:14:11;;;;;;;75.10;29.48;;;;;;;;;;5058240;28;20447;-57
2022/01/15 08:16:36;;;;;;;66.13;30.30;;;;;;;;;;5052314;28;20016;-57
2022/01/15 08:19:01;;;;;;;80.83;31.70;;;;;;;;;;5050215;28;20381;-57
2022/01/15 08:21:27;;;;;;;71.13;31.83;;;;;;;;;;5052924;28;20453;-57
2022/01/15 08:23:52;;;;;;;68.33;31.57;;;;;;;;;;5048256;28;20041;-57
2022/01/15 08:26:17;;;;;;;77.23;33.27;;;;;;;;;;5051693;28;20450;-57
2022/01/15 08:28:42;;;;;;;67.55;29.63;;;;;;;;;;5059782;28;20977;-57
2022/01/15 08:31:07;;;;;;;68.45;28.58;;;;;;;;;;5052304;28;20048;-57
2022/01/15 08:33:33;;;;;;;68.60;30.45;;;;;;;;;;5053562;28;20024;-57
2022/01/15 08:35:58;;;;;;;76.05;33.85;;;;;;;;;;5070508;28;20017;-57
2022/01/15 08:38:23;;;;;;;64.82;28.63;;;;;;;;;;5056085;28;20104;-57
2022/01/15 08:40:49;;;;;;;63.95;30.15;;;;;;;;;;5050604;28;20089;-57
2022/01/15 08:43:14;;;;;;;70.55;35.30;;;;;;;;;;5051517;28;20082;-57
2022/01/15 08:45:40;;;;;;;70.45;32.90;;;;;;;;;;5065213;28;20044;-57
2022/01/15 08:48:05;;;;;;;63.25;28.65;;;;;;;;;;5071721;28;20020;-57
2022/01/15 08:50:31;;;;;;;68.63;36.30;;;;;;;;;;5070419;28;20067;-57
2022/01/15 08:52:56;;;;;;;52.28;31.25;;;;;;;;;;5064234;28;20100;-57
2022/01/15 08:55:21;;;;;;;78.80;34.28;;;;;;;;;;5059726;28;20120;-57
2022/01/15 08:57:47;;;;;;;59.90;28.98;;;;;;;;;;5055392;28;20043;-57
2022/01/15 09:00:14;;;;;;;60.75;32.80;;;;;;;;;;5050529;28;20041;-57
2022/01/15 09:02:39;;;;;;;64.45;34.88;;;;;;;;;;5051128;28;20098;-57
2022/01/15 09:05:05;;;;;;;67.03;37.17;;;;;;;;;;5062406;28;20044;-57
2022/01/15 09:07:30;;;;;;;63.83;33.30;;;;;;;;;;5060031;28;20025;-57
2022/01/15 09:09:55;;;;;;;62.53;34.15;;;;;;;;;;5050746;28;20109;-57
2022/01/15 09:12:22;;;;;;;59.80;34.13;;;;;;;;;;5051281;28;20013;-57
2022/01/15 09:14:48;;;;;;;66.05;30.88;;;;;;;;;;5050378;28;20040;-57
2022/01/15 09:17:13;;;;;;;54.72;32.75;;;;;;;;;;5051312;28;20013;-57
2022/01/15 09:19:38;;;;;;;58.30;35.17;;;;;;;;;;5049467;28;20033;-57
2022/01/15 09:22:06;;;;;;;68.93;34.95;;;;;;;;;;5055094;28;20383;-57
2022/01/15 09:24:31;;;;;;;55.70;35.40;;;;;;;;;;5060054;28;20119;-57
2022/01/15 09:27:02;;;;;;;48.27;29.60;;;;;;;;;;5061464;28;20096;-57
2022/01/15 09:32:12;;;;;;;45.83;30.80;;;;;;;;;;5031700;28;20095;-57
2022/01/15 09:34:37;;;;;;;51.13;31.98;;;;;;;;;;5057489;28;20148;-57
2022/01/15 09:37:03;;;;;;;57.97;34.30;;;;;;;;;;5050555;28;20460;-57
2022/01/15 09:39:28;;;;;;;62.30;36.33;;;;;;;;;;5047692;28;20033;-57
2022/01/15 09:41:55;;;;;;;51.65;33.17;;;;;;;;;;5048955;28;20013;-57
2022/01/15 09:44:20;;;;;;;56.72;35.80;;;;;;;;;;5049285;28;20044;-57
2022/01/15 09:46:45;;;;;;;61.58;36.53;;;;;;;;;;5049062;28;20033;-57
2022/01/15 09:49:13;;;;;;;58.05;34.90;;;;;;;;;;5056502;28;20032;-57
2022/01/15 09:51:38;;;;;;;53.38;35.13;;;;;;;;;;5062434;28;20707;-57
2022/01/15 09:54:03;;;;;;;61.05;34.15;;;;;;;;;;5054092;28;20132;-57
2022/01/15 09:56:29;;;;;;;61.95;34.60;;;;;;;;;;5070686;28;20051;-57
2022/01/15 09:58:56;;;;;;;50.63;33.77;;;;;;;;;;5068984;28;20029;-57
2022/01/15 10:01:21;;;;;;;51.05;30.95;;;;;;;;;;5060143;28;20064;-57
2022/01/15 10:03:46;;;;;;;46.07;30.70;;;;;;;;;;5048226;28;20378;-57
2022/01/15 10:06:11;;;;;;;48.40;32.63;;;;;;;;;;5049192;28;20495;-56
2022/01/15 10:08:37;;;;;;;49.27;29.57;;;;;;;;;;5048923;28;20059;-56
2022/01/15 10:11:07;;;;;;;54.38;30.55;;;;;;;;;;5064082;28;20439;-56
2022/01/15 10:13:41;;;;;;;51.75;28.88;;;;;;;;;;5066236;28;20111;-55
2022/01/15 10:16:06;;;;;;;58.03;35.22;;;;;;;;;;5063420;28;20099;-56
2022/01/15 10:18:33;;;;;;;44.88;32.42;;;;;;;;;;5067973;28;20104;-56
2022/01/15 10:21:12;;;;;;;42.58;27.00;;;;;;;;;;5048730;28;20121;-56
2022/01/15 10:23:45;;;;;;;38.60;27.25;;;;;;;;;;5049405;28;20025;-56
2022/01/15 10:26:11;;;;;;;40.00;27.25;;;;;;;;;;5069861;28;20028;-57
2022/01/15 10:28:47;;;;;;;43.05;27.77;;;;;;;;;;5050730;28;20407;-56
2022/01/15 10:31:19;;;;;;;41.72;28.23;;;;;;;;;;5052265;28;20045;-56
2022/01/15 10:33:44;;;;;;;40.17;26.08;;;;;;;;;;5048866;28;20013;-56
2022/01/15 10:36:20;;;;;;;42.20;27.67;;;;;;;;;;5070175;28;20448;-56
2022/01/15 10:38:45;;;;;;;37.47;26.75;;;;;;;;;;5068699;28;20025;-58
2022/01/15 10:41:28;;;;;;;38.45;27.30;;;;;;;;;;5069389;28;20111;-56
2022/01/15 10:43:53;;;;;;;37.15;26.10;;;;;;;;;;5066861;28;20090;-56
2022/01/15 10:46:30;;;;;;;38.13;25.73;;;;;;;;;;5069832;28;20426;-56
2022/01/15 10:48:55;;;;;;;32.55;25.40;;;;;;;;;;5068059;28;20059;-58
2022/01/15 10:51:22;;;;;;;36.72;26.27;;;;;;;;;;5068979;28;20044;-56
2022/01/15 10:53:47;;;;;;;47.90;25.52;;;;;;;;;;5048571;28;20100;-56
2022/01/15 10:56:14;;;;;;;37.97;26.85;;;;;;;;;;5053753;28;20527;-56
2022/01/15 10:58:39;;;;;;;33.92;24.00;;;;;;;;;;5068693;28;20059;-55
2022/01/15 11:01:05;;;;;;;32.00;23.67;;;;;;;;;;5070325;28;20052;-56
2022/01/15 11:03:36;;;;;;;36.30;23.30;;;;;;;;;;5069658;28;20598;-56
2022/01/15 11:06:01;;;;;;;35.30;22.98;;;;;;;;;;5050634;28;20450;-56
2022/01/15 11:08:27;;;;;;;34.03;23.70;;;;;;;;;;5070047;28;20135;-56
2022/01/15 11:10:56;;;;;;;38.50;27.52;;;;;;;;;;5056783;28;20976;-55
2022/01/15 11:13:42;;;;;;;33.03;25.42;;;;;;;;;;5049722;28;20025;-56
2022/01/15 11:16:14;;;;;;;38.45;27.63;;;;;;;;;;5054833;28;20059;-56
2022/01/15 11:18:40;;;;;;;32.00;24.20;;;;;;;;;;5048861;28;20024;-56
2022/01/15 11:21:06;;;;;;;29.88;21.50;;;;;;;;;;5063315;28;20029;-56
2022/01/15 11:23:32;;;;;;;34.08;23.95;;;;;;;;;;5068825;28;20025;-56
2022/01/15 11:25:59;;;;;;;35.38;24.58;;;;;;;;;;5062446;28;20045;-55
2022/01/15 11:28:26;;;;;;;30.58;23.92;;;;;;;;;;5050002;28;20023;-56
2022/01/15 11:30:55;;;;;;;38.13;26.25;;;;;;;;;;5056463;28;20048;-56
2022/01/15 11:33:22;;;;;;;33.70;23.67;;;;;;;;;;5069251;28;20471;-56
2022/01/15 11:35:48;;;;;;;36.88;25.35;;;;;;;;;;5057802;28;20434;-55
2022/01/15 11:38:36;;;;;;;34.67;26.58;;;;;;;;;;5049951;28;20013;-55
2022/01/15 11:41:01;;;;;;;34.95;27.05;;;;;;;;;;5044755;28;20040;-55
2022/01/15 11:43:31;;;;;;;35.73;25.57;;;;;;;;;;5067291;28;20119;-56
2022/01/15 11:45:57;;;;;;;35.80;27.20;;;;;;;;;;5062595;28;20492;-56
2022/01/15 11:48:26;;;;;;;45.72;33.10;;;;;;;;;;5049094;28;20060;-55
2022/01/15 11:51:10;;;;;;;49.53;33.58;;;;;;;;;;5054556;28;20556;-55
2022/01/15 11:53:45;;;;;;;45.65;33.13;;;;;;;;;;5065667;28;20021;-55
2022/01/15 11:56:14;;;;;;;50.47;33.35;;;;;;;;;;5067731;28;20036;-55
2022/01/15 11:58:39;;;;;;;50.45;33.67;;;;;;;;;;5069202;28;20031;-56
2022/01/15 12:01:04;;;;;;;55.87;36.53;;;;;;;;;;5068687;28;20033;-55
2022/01/15 12:03:38;;;;;;;49.65;30.77;;;;;;;;;;5054931;28;20439;-55
2022/01/15 12:06:03;;;;;;;56.65;36.13;;;;;;;;;;5056752;28;20131;-58
2022/01/15 12:08:30;;;;;;;60.00;35.05;;;;;;;;;;5072826;28;20020;-55
2022/01/15 12:10:56;;;;;;;53.90;33.88;;;;;;;;;;5051131;28;20048;-55
2022/01/15 12:13:29;;;;;;;53.20;35.78;;;;;;;;;;5052469;28;20025;-55
2022/01/15 12:16:13;;;;;;;71.07;43.05;;;;;;;;;;5051126;28;20025;-56
2022/01/15 12:18:45;;;;;;;61.42;39.15;;;;;;;;;;5051955;28;20668;-55
2022/01/15 12:21:11;;;;;;;60.75;37.70;;;;;;;;;;5056128;28;20227;-56
2022/01/15 12:23:36;;;;;;;66.03;41.50;;;;;;;;;;5057563;28;20664;-56
2022/01/15 12:26:08;;;;;;;60.37;33.47;;;;;;;;;;5051072;28;20037;-56
2022/01/15 12:28:33;;;;;;;80.53;49.30;;;;;;;;;;5058487;28;20822;-54
2022/01/15 12:30:58;;;;;;;72.30;42.83;;;;;;;;;;5064812;28;20040;-56
2022/01/15 12:33:23;;;;;;;59.63;39.03;;;;;;;;;;5048149;28;20021;-56
2022/01/15 12:35:51;;;;;;;63.00;40.70;;;;;;;;;;5050534;28;20032;-55
2022/01/15 12:38:28;;;;;;;60.42;36.75;;;;;;;;;;5052876;28;20447;-55
2022/01/15 12:40:59;;;;;;;66.68;40.72;;;;;;;;;;5044255;28;20043;-55
2022/01/15 12:43:28;;;;;;;61.88;38.42;;;;;;;;;;5072914;28;20027;-56
2022/01/15 12:45:58;;;;;;;59.83;36.40;;;;;;;;;;5070811;28;20123;-56
2022/01/15 12:48:24;;;;;;;63.65;39.00;;;;;;;;;;5064480;28;20021;-56
2022/01/15 12:50:54;;;;;;;59.50;37.38;;;;;;;;;;5056874;28;20044;-56
2022/01/15 12:53:20;;;;;;;62.88;36.47;;;;;;;;;;5071795;28;20032;-56
2022/01/15 12:55:46;;;;;;;64.60;36.72;;;;;;;;;;5070179;28;20044;-56
2022/01/15 12:58:14;;;;;;;66.97;36.47;;;;;;;;;;5066543;28;20139;-56
2022/01/15 13:00:39;;;;;;;65.25;38.65;;;;;;;;;;5051709;28;20492;-56
2022/01/15 13:03:06;;;;;;;64.85;37.40;;;;;;;;;;5051967;28;20021;-56
2022/01/15 13:05:33;;;;;;;81.13;44.28;;;;;;;;;;5050582;28;20060;-56
2022/01/15 13:07:59;;;;;;;64.43;40.53;;;;;;;;;;5054682;28;20103;-56
2022/01/15 13:10:35;;;;;;;73.22;43.58;;;;;;;;;;5067642;28;22078;-55
2022/01/15 13:13:01;;;;;;;69.57;39.17;;;;;;;;;;5052515;28;20031;-56
2022/01/15 13:15:27;;;;;;;66.82;35.47;;;;;;;;;;5058292;28;20033;-56
2022/01/15 13:17:52;;;;;;;68.13;40.03;;;;;;;;;;5051061;28;20176;-56
2022/01/15 13:20:24;;;;;;;64.60;36.13;;;;;;;;;;5054389;28;20388;-56
2022/01/15 13:22:53;;;;;;;62.92;38.35;;;;;;;;;;5071596;28;20028;-56
2022/01/15 13:25:22;;;;;;;65.40;37.78;;;;;;;;;;5068005;28;20258;-56
2022/01/15 13:27:47;;;;;;;60.45;36.13;;;;;;;;;;5065170;28;20049;-56
2022/01/15 13:30:13;;;;;;;72.90;42.08;;;;;;;;;;5056844;28;20079;-56
2022/01/15 13:32:38;;;;;;;67.97;36.53;;;;;;;;;;5065444;28;20449;-56
2022/01/15 13:35:10;;;;;;;72.73;40.57;;;;;;;;;;5058099;28;20483;-56
2022/01/15 13:37:35;;;;;;;76.38;44.53;;;;;;;;;;5051077;28;20512;-56
2022/01/15 13:40:01;;;;;;;67.18;39.95;;;;;;;;;;5049710;28;20360;-56
2022/01/15 13:42:29;;;;;;;72.57;39.63;;;;;;;;;;5062185;28;20677;-56
2022/01/15 13:44:54;;;;;;;70.03;41.05;;;;;;;;;;5058049;28;20045;-56
2022/01/15 13:47:19;;;;;;;65.03;38.95;;;;;;;;;;5063075;28;20207;-54
2022/01/15 13:55:14;;;;;;;60.88;33.92;;;;;;;;;;5051772;28;20044;-55
2022/01/15 13:57:40;;;;;;;64.72;35.00;;;;;;;;;;5053164;28;20021;-55
2022/01/15 14:00:14;;;;;;;59.63;37.63;;;;;;;;;;5049694;28;20511;-55
2022/01/15 14:02:39;;;;;;;58.85;33.78;;;;;;;;;;5057198;28;20099;-55
2022/01/15 14:05:15;;;;;;;66.38;35.83;;;;;;;;;;5061128;28;20128;-55
2022/01/15 14:07:41;;;;;;;64.22;38.00;;;;;;;;;;5050641;28;20032;-55
2022/01/15 14:10:08;;;;;;;58.65;36.63;;;;;;;;;;5049507;28;20041;-55
2022/01/15 14:12:33;;;;;;;62.25;36.70;;;;;;;;;;5057595;28;20387;-55
2022/01/15 14:15:13;;;;;;;69.30;36.72;;;;;;;;;;5052206;28;20028;-55
2022/01/15 14:17:42;;;;;;;74.70;37.97;;;;;;;;;;5030397;28;20385;-55
2022/01/15 14:22:44;;;;;;;77.18;42.67;;;;;;;;;;5070841;28;20036;-55
2022/01/15 14:25:10;;;;;;;78.00;44.03;;;;;;;;;;5068007;28;20029;-55
2022/01/15 14:27:36;;;;;;;77.20;39.90;;;;;;;;;;5070498;28;20028;-55
2022/01/15 14:30:01;;;;;;;63.85;36.20;;;;;;;;;;5067922;28;20167;-55
2022/01/15 14:32:27;;;;;;;80.60;38.90;;;;;;;;;;5055890;28;20082;-55
2022/01/15 14:34:53;;;;;;;72.90;38.25;;;;;;;;;;5066528;28;20569;-55
2022/01/15 14:37:18;;;;;;;79.53;41.63;;;;;;;;;;5050440;28;20074;-60
2022/01/15 14:39:43;;;;;;;66.63;39.72;;;;;;;;;;5055366;28;20033;-56